Time;durP1;ratioP1;P1;durP2;ratioP2;P2;SDS_P1;SDS_P2;PMS_P1;PMS_P2;Temp;Humidity;BMP_temperature;BMP_pressure;BME280_temperature;BME280_humidity;BME280_pressure;Samples;Min_cycle;Max_cycle;Signal;HPM_P1;HPM_P2
2022/03/18 00:00:25;;;;;;;59.00;20.37;;;;;;;;;;5056397;28;20203;-52
2022/03/18 00:03:09;;;;;;;121.57;31.60;;;;;;;;;;5056233;28;20240;-53
2022/03/18 00:05:36;;;;;;;290.57;84.07;;;;;;;;;;5056261;28;20212;-53
2022/03/18 00:08:06;;;;;;;667.97;199.93;;;;;;;;;;5055950;28;20285;-53
2022/03/18 00:10:33;;;;;;;262.53;68.97;;;;;;;;;;5055932;28;20220;-52
2022/03/18 00:13:00;;;;;;;143.17;36.73;;;;;;;;;;5056332;28;20211;-56
2022/03/18 00:15:28;;;;;;;147.73;36.70;;;;;;;;;;5055808;28;20242;-52
2022/03/18 00:17:56;;;;;;;117.33;30.93;;;;;;;;;;5055972;28;20215;-52
2022/03/18 00:20:23;;;;;;;110.10;28.20;;;;;;;;;;5055974;28;20196;-53
2022/03/18 00:22:51;;;;;;;70.90;23.13;;;;;;;;;;5055638;28;20614;-55
2022/03/18 00:25:19;;;;;;;661.13;202.53;;;;;;;;;;5055690;28;20299;-53
2022/03/18 00:27:47;;;;;;;662.47;160.77;;;;;;;;;;5055716;28;20604;-53
2022/03/18 00:30:16;;;;;;;216.57;51.97;;;;;;;;;;5055857;28;20650;-54
2022/03/18 00:32:44;;;;;;;197.90;43.47;;;;;;;;;;5055432;28;20295;-55
2022/03/18 00:35:32;;;;;;;152.13;38.03;;;;;;;;;;5055613;28;20231;-56
2022/03/18 00:38:02;;;;;;;142.53;36.30;;;;;;;;;;5055439;28;20544;-52
2022/03/18 00:40:29;;;;;;;176.73;42.33;;;;;;;;;;5055646;28;20203;-52
2022/03/18 00:42:57;;;;;;;216.03;46.53;;;;;;;;;;5038156;28;20605;-51
2022/03/18 00:45:24;;;;;;;623.53;157.13;;;;;;;;;;5055684;28;20200;-51
2022/03/18 00:53:24;;;;;;;212.50;47.63;;;;;;;;;;5055084;28;20199;-54
2022/03/18 00:55:51;;;;;;;147.17;36.73;;;;;;;;;;5055278;28;20227;-55
2022/03/18 00:58:18;;;;;;;131.57;32.27;;;;;;;;;;5037948;28;20226;-56
2022/03/18 01:00:45;;;;;;;73.80;22.70;;;;;;;;;;5055362;28;20242;-53
2022/03/18 01:03:15;;;;;;;63.63;20.43;;;;;;;;;;5055300;28;20239;-54
2022/03/18 01:05:43;;;;;;;780.40;211.33;;;;;;;;;;5055196;28;20212;-55
2022/03/18 01:08:11;;;;;;;1999.90;650.93;;;;;;;;;;5054911;28;20318;-55
2022/03/18 01:10:38;;;;;;;1410.87;488.47;;;;;;;;;;5055170;28;20208;-52
2022/03/18 01:13:05;;;;;;;471.10;120.83;;;;;;;;;;5054762;28;20295;-52
2022/03/18 01:15:33;;;;;;;213.50;53.47;;;;;;;;;;5054907;28;20646;-54
2022/03/18 01:18:00;;;;;;;129.43;40.63;;;;;;;;;;5054677;28;20223;-53
2022/03/18 01:20:28;;;;;;;125.83;36.83;;;;;;;;;;5054910;28;20204;-53
2022/03/18 01:22:56;;;;;;;142.53;39.60;;;;;;;;;;5055570;28;20293;-55
2022/03/18 01:25:23;;;;;;;189.30;49.87;;;;;;;;;;5054821;28;20247;-55
2022/03/18 01:27:50;;;;;;;179.23;48.40;;;;;;;;;;5054665;28;20219;-52
2022/03/18 01:30:17;;;;;;;313.93;88.00;;;;;;;;;;5055081;28;20266;-55
2022/03/18 01:32:44;;;;;;;526.57;133.07;;;;;;;;;;5054748;28;20665;-54
2022/03/18 01:35:11;;;;;;;416.67;79.50;;;;;;;;;;5054468;28;20205;-55
2022/03/18 01:37:38;;;;;;;147.03;36.80;;;;;;;;;;5055011;28;20250;-53
2022/03/18 01:40:06;;;;;;;80.27;24.43;;;;;;;;;;5037302;28;20246;-54
2022/03/18 01:42:33;;;;;;;136.07;36.57;;;;;;;;;;5054546;28;20310;-52
2022/03/18 01:45:01;;;;;;;84.40;27.37;;;;;;;;;;5054840;28;20246;-55
2022/03/18 01:47:28;;;;;;;70.23;24.27;;;;;;;;;;5054061;28;20228;-52
2022/03/18 01:49:58;;;;;;;89.80;27.77;;;;;;;;;;5055250;28;20207;-56
2022/03/18 01:52:25;;;;;;;868.63;267.87;;;;;;;;;;5054461;28;20231;-52
2022/03/18 01:54:53;;;;;;;235.87;64.80;;;;;;;;;;5054622;28;20207;-54
2022/03/18 01:57:22;;;;;;;266.63;60.10;;;;;;;;;;5054654;28;20299;-54
2022/03/18 01:59:51;;;;;;;117.83;31.67;;;;;;;;;;5054590;28;20219;-53
2022/03/18 02:02:18;;;;;;;48.97;20.33;;;;;;;;;;5057932;28;20208;-55
2022/03/18 02:04:46;;;;;;;126.33;31.47;;;;;;;;;;5058377;28;20210;-55
2022/03/18 02:07:14;;;;;;;172.27;39.03;;;;;;;;;;5058718;28;20251;-55
2022/03/18 02:09:42;;;;;;;168.43;38.47;;;;;;;;;;5058404;28;20204;-56
2022/03/18 02:12:09;;;;;;;1409.83;441.63;;;;;;;;;;5058323;28;20291;-56
2022/03/18 02:14:38;;;;;;;1089.10;289.57;;;;;;;;;;5058306;28;20200;-55
2022/03/18 02:17:07;;;;;;;567.93;122.90;;;;;;;;;;5057979;28;20200;-54
2022/03/18 02:19:36;;;;;;;395.63;80.63;;;;;;;;;;5057964;28;20665;-55
2022/03/18 02:22:23;;;;;;;36.50;18.87;;;;;;;;;;5058146;28;20606;-55
2022/03/18 02:24:51;;;;;;;35.87;17.17;;;;;;;;;;5057994;28;20273;-53
2022/03/18 02:27:19;;;;;;;61.00;21.33;;;;;;;;;;5058699;28;20267;-55
2022/03/18 02:29:47;;;;;;;39.00;17.00;;;;;;;;;;5058121;28;20223;-55
2022/03/18 02:32:14;;;;;;;33.90;15.73;;;;;;;;;;5056939;28;20647;-56
2022/03/18 02:34:41;;;;;;;27.83;14.50;;;;;;;;;;5057735;28;20231;-56
2022/03/18 02:37:09;;;;;;;30.67;15.33;;;;;;;;;;5057706;28;20266;-52
2022/03/18 02:39:36;;;;;;;196.47;52.27;;;;;;;;;;5057792;28;20228;-55
2022/03/18 02:42:04;;;;;;;190.37;47.47;;;;;;;;;;5040549;28;20254;-53
2022/03/18 02:44:32;;;;;;;79.60;24.87;;;;;;;;;;5056915;28;20208;-56
2022/03/18 02:46:59;;;;;;;64.67;20.93;;;;;;;;;;5057763;28;20219;-54
2022/03/18 02:49:27;;;;;;;60.50;22.20;;;;;;;;;;5057425;28;20213;-52
2022/03/18 02:51:54;;;;;;;62.30;21.50;;;;;;;;;;5057570;28;20204;-55
2022/03/18 02:54:21;;;;;;;44.70;18.53;;;;;;;;;;5057322;28;20224;-52
2022/03/18 02:56:49;;;;;;;42.00;17.77;;;;;;;;;;5057634;28;20231;-53
2022/03/18 02:59:16;;;;;;;298.17;85.20;;;;;;;;;;5057875;28;20204;-55
2022/03/18 03:01:43;;;;;;;128.83;34.80;;;;;;;;;;5057319;28;20235;-54
2022/03/18 03:04:15;;;;;;;56.43;19.33;;;;;;;;;;5057370;28;20632;-56
2022/03/18 03:09:28;;;;;;;43.57;17.03;;;;;;;;;;5057638;28;20238;-53
2022/03/18 03:11:56;;;;;;;77.00;23.57;;;;;;;;;;5056245;28;20287;-55
2022/03/18 03:14:23;;;;;;;68.27;22.50;;;;;;;;;;5056973;28;20207;-52
2022/03/18 03:16:51;;;;;;;98.47;26.40;;;;;;;;;;5057578;28;20359;-54
2022/03/18 03:19:18;;;;;;;181.60;50.47;;;;;;;;;;5057065;28;20204;-52
2022/03/18 03:21:45;;;;;;;449.33;91.23;;;;;;;;;;5056879;28;20609;-51
2022/03/18 03:24:13;;;;;;;307.30;60.30;;;;;;;;;;5057135;28;20196;-55
2022/03/18 03:26:40;;;;;;;144.47;34.33;;;;;;;;;;5057004;28;20283;-54
2022/03/18 03:29:08;;;;;;;110.73;30.33;;;;;;;;;;5056981;28;20700;-54
2022/03/18 03:31:35;;;;;;;155.17;36.80;;;;;;;;;;5056674;28;20204;-52
2022/03/18 03:34:02;;;;;;;84.57;24.30;;;;;;;;;;5057277;28;20207;-56
2022/03/18 03:36:30;;;;;;;156.23;34.87;;;;;;;;;;5056555;28;20594;-53
2022/03/18 03:38:57;;;;;;;287.53;55.00;;;;;;;;;;5057037;28;20548;-55
2022/03/18 03:41:24;;;;;;;1314.83;360.87;;;;;;;;;;5056621;28;20694;-55
2022/03/18 03:43:51;;;;;;;455.60;96.17;;;;;;;;;;5056611;28;20262;-52
2022/03/18 03:46:18;;;;;;;164.07;39.03;;;;;;;;;;5056421;28;20215;-52
2022/03/18 03:48:45;;;;;;;73.33;24.37;;;;;;;;;;5038998;28;20667;-53
2022/03/18 03:51:12;;;;;;;58.47;21.53;;;;;;;;;;5056325;28;20223;-56
2022/03/18 03:53:39;;;;;;;106.90;26.90;;;;;;;;;;5056217;28;20200;-54
2022/03/18 03:56:07;;;;;;;83.87;24.93;;;;;;;;;;5056278;28;20204;-53
2022/03/18 03:58:34;;;;;;;164.73;36.20;;;;;;;;;;5056051;28;20299;-56
2022/03/18 04:01:01;;;;;;;1116.20;332.30;;;;;;;;;;5055996;28;20273;-54
2022/03/18 04:03:28;;;;;;;1197.20;329.97;;;;;;;;;;5054871;28;20228;-55
2022/03/18 04:05:55;;;;;;;1999.90;613.70;;;;;;;;;;5055819;28;20690;-52
2022/03/18 04:08:22;;;;;;;1999.90;781.97;;;;;;;;;;5055831;28;20262;-55
2022/03/18 04:10:50;;;;;;;779.30;219.47;;;;;;;;;;5038691;28;20191;-53
2022/03/18 04:13:17;;;;;;;267.73;72.80;;;;;;;;;;5055602;28;20705;-54
2022/03/18 04:15:44;;;;;;;238.37;58.63;;;;;;;;;;5055856;28;20224;-54
2022/03/18 04:18:12;;;;;;;153.47;43.07;;;;;;;;;;5055454;28;20249;-53
2022/03/18 04:20:39;;;;;;;67.33;28.20;;;;;;;;;;5055987;28;20215;-55
2022/03/18 04:23:06;;;;;;;65.43;25.80;;;;;;;;;;5055349;28;20665;-55
2022/03/18 04:25:33;;;;;;;55.13;21.47;;;;;;;;;;5059200;28;20237;-54
2022/03/18 04:28:00;;;;;;;78.20;25.73;;;;;;;;;;5078217;28;20215;-55
2022/03/18 04:30:27;;;;;;;162.07;45.47;;;;;;;;;;5074092;28;20199;-55
2022/03/18 04:32:54;;;;;;;109.07;29.20;;;;;;;;;;5077181;28;20230;-53
2022/03/18 04:35:25;;;;;;;151.33;35.93;;;;;;;;;;5075064;28;20294;-56
2022/03/18 04:37:52;;;;;;;94.37;26.83;;;;;;;;;;5074059;28;20199;-58
2022/03/18 04:40:19;;;;;;;68.03;21.80;;;;;;;;;;5073287;28;20226;-54
2022/03/18 04:42:46;;;;;;;101.60;27.93;;;;;;;;;;5038936;28;20286;-52
2022/03/18 04:45:13;;;;;;;82.57;26.50;;;;;;;;;;5059549;28;20534;-55
2022/03/18 04:47:41;;;;;;;110.23;29.53;;;;;;;;;;5064234;28;20259;-56
2022/03/18 04:50:09;;;;;;;1100.37;343.57;;;;;;;;;;5066759;28;20207;-55
2022/03/18 04:52:36;;;;;;;354.63;75.40;;;;;;;;;;5075200;28;20272;-55
2022/03/18 04:55:04;;;;;;;308.17;58.37;;;;;;;;;;5074816;28;20223;-55
2022/03/18 04:57:31;;;;;;;229.27;49.57;;;;;;;;;;5068966;28;20203;-59
2022/03/18 04:59:58;;;;;;;163.90;39.03;;;;;;;;;;5074978;28;20633;-56
2022/03/18 05:02:26;;;;;;;158.73;40.50;;;;;;;;;;5071845;28;20272;-52
2022/03/18 05:04:54;;;;;;;220.93;49.40;;;;;;;;;;5071560;28;20234;-54
2022/03/18 05:07:21;;;;;;;240.17;50.30;;;;;;;;;;5075889;28;20206;-57
2022/03/18 05:09:49;;;;;;;752.63;200.30;;;;;;;;;;5074196;28;20245;-54
2022/03/18 05:12:17;;;;;;;1999.90;999.90;;;;;;;;;;5068096;28;20551;-53
2022/03/18 05:14:51;;;;;;;1461.00;548.87;;;;;;;;;;5070679;28;20226;-56
2022/03/18 05:17:18;;;;;;;331.47;106.07;;;;;;;;;;5075215;28;20198;-51
2022/03/18 05:19:45;;;;;;;122.00;44.67;;;;;;;;;;5067155;28;20312;-52
2022/03/18 05:22:12;;;;;;;124.10;44.40;;;;;;;;;;5069012;28;20250;-56
2022/03/18 05:24:39;;;;;;;98.20;36.43;;;;;;;;;;5076734;28;20305;-54
2022/03/18 05:27:06;;;;;;;73.27;30.27;;;;;;;;;;5073949;28;20275;-56
2022/03/18 05:29:34;;;;;;;76.13;27.77;;;;;;;;;;5073786;28;20254;-54
2022/03/18 05:32:01;;;;;;;72.63;26.80;;;;;;;;;;5073859;28;20227;-55
2022/03/18 05:34:29;;;;;;;129.23;50.13;;;;;;;;;;5072246;28;20254;-55
2022/03/18 05:36:57;;;;;;;246.33;55.27;;;;;;;;;;5073555;28;20261;-57
2022/03/18 05:39:25;;;;;;;87.80;31.60;;;;;;;;;;5073673;28;20226;-54
2022/03/18 05:41:52;;;;;;;63.83;25.60;;;;;;;;;;5073653;28;20325;-52
2022/03/18 05:44:19;;;;;;;75.37;27.87;;;;;;;;;;5073481;28;20257;-55
2022/03/18 05:46:46;;;;;;;60.20;21.67;;;;;;;;;;5073692;28;20223;-54
2022/03/18 05:49:14;;;;;;;59.13;23.30;;;;;;;;;;5072822;28;20262;-55
2022/03/18 05:51:41;;;;;;;87.90;29.33;;;;;;;;;;5068732;28;20216;-53
2022/03/18 05:54:09;;;;;;;98.43;32.63;;;;;;;;;;5073389;28;20237;-54
2022/03/18 05:56:55;;;;;;;1317.50;574.03;;;;;;;;;;5072744;28;20239;-51
2022/03/18 05:59:23;;;;;;;595.53;217.70;;;;;;;;;;5073545;28;20224;-53
2022/03/18 06:01:55;;;;;;;103.70;37.43;;;;;;;;;;5073405;28;20258;-54
2022/03/18 06:04:23;;;;;;;119.67;35.13;;;;;;;;;;5055830;28;20249;-53
2022/03/18 06:06:51;;;;;;;69.07;23.87;;;;;;;;;;5073733;28;20258;-52
2022/03/18 06:12:05;;;;;;;66.03;23.53;;;;;;;;;;5073813;28;20227;-56
2022/03/18 06:14:33;;;;;;;49.93;19.20;;;;;;;;;;5073679;28;20246;-59
2022/03/18 06:17:02;;;;;;;54.57;19.10;;;;;;;;;;5073360;28;20254;-56
2022/03/18 06:19:30;;;;;;;446.80;167.67;;;;;;;;;;5081123;28;20229;-53
2022/03/18 06:21:58;;;;;;;114.23;33.00;;;;;;;;;;5093298;28;20237;-57
2022/03/18 06:24:25;;;;;;;55.40;19.83;;;;;;;;;;5093771;28;20241;-56
2022/03/18 06:26:53;;;;;;;49.23;19.33;;;;;;;;;;5093528;28;20288;-58
2022/03/18 06:29:21;;;;;;;46.93;19.43;;;;;;;;;;5093953;28;20250;-56
2022/03/18 06:31:49;;;;;;;51.57;20.07;;;;;;;;;;5094160;28;20538;-56
2022/03/18 06:34:17;;;;;;;31.17;15.37;;;;;;;;;;5095167;28;20202;-52
2022/03/18 06:36:44;;;;;;;37.70;16.60;;;;;;;;;;5094501;28;20226;-53
2022/03/18 06:39:11;;;;;;;42.57;18.80;;;;;;;;;;5094356;28;20241;-57
2022/03/18 06:41:39;;;;;;;1003.27;415.43;;;;;;;;;;5094458;28;20226;-52
2022/03/18 06:44:09;;;;;;;277.70;91.03;;;;;;;;;;5094451;28;20198;-52
2022/03/18 06:46:37;;;;;;;63.00;24.20;;;;;;;;;;5095007;28;20191;-53
2022/03/18 06:49:05;;;;;;;64.00;22.83;;;;;;;;;;5080377;28;20207;-52
2022/03/18 06:51:33;;;;;;;74.20;23.67;;;;;;;;;;5097698;28;20295;-54
2022/03/18 06:54:01;;;;;;;70.83;23.10;;;;;;;;;;5098052;28;20195;-53
2022/03/18 06:56:30;;;;;;;78.57;25.23;;;;;;;;;;5094956;28;20215;-52
2022/03/18 06:58:57;;;;;;;171.30;37.60;;;;;;;;;;5077245;28;20237;-52
2022/03/18 07:01:25;;;;;;;123.30;30.43;;;;;;;;;;5077360;28;20598;-53
2022/03/18 07:03:52;;;;;;;1204.97;483.90;;;;;;;;;;5077636;28;20250;-52
2022/03/18 07:06:19;;;;;;;200.53;57.13;;;;;;;;;;5077039;28;20640;-51
2022/03/18 07:08:47;;;;;;;97.33;29.00;;;;;;;;;;5077108;28;20231;-56
2022/03/18 07:11:14;;;;;;;98.83;28.30;;;;;;;;;;5077038;28;20649;-54
2022/03/18 07:13:43;;;;;;;58.67;21.47;;;;;;;;;;5077608;28;20204;-53
2022/03/18 07:18:56;;;;;;;46.57;17.97;;;;;;;;;;5076884;28;20198;-52
2022/03/18 07:21:24;;;;;;;28.93;14.33;;;;;;;;;;5077156;28;20590;-53
2022/03/18 07:23:51;;;;;;;1153.27;422.40;;;;;;;;;;5076976;28;20199;-52
2022/03/18 07:26:19;;;;;;;96.37;34.77;;;;;;;;;;5077018;28;20249;-53
2022/03/18 07:28:46;;;;;;;105.97;27.80;;;;;;;;;;5077313;28;20231;-55
2022/03/18 07:31:13;;;;;;;42.93;16.83;;;;;;;;;;5076930;28;20206;-55
2022/03/18 07:33:40;;;;;;;86.00;26.10;;;;;;;;;;5077684;28;20288;-52
2022/03/18 07:36:07;;;;;;;57.43;20.13;;;;;;;;;;5077415;28;20212;-54
2022/03/18 07:38:35;;;;;;;58.23;21.23;;;;;;;;;;5076662;28;20563;-52
2022/03/18 07:41:02;;;;;;;44.53;15.37;;;;;;;;;;5076807;28;20203;-52
2022/03/18 07:43:30;;;;;;;1310.97;488.40;;;;;;;;;;5076731;28;20207;-53
2022/03/18 07:45:56;;;;;;;687.10;300.13;;;;;;;;;;5076645;28;20557;-52
2022/03/18 07:48:26;;;;;;;141.30;39.33;;;;;;;;;;5076558;28;20235;-55
2022/03/18 07:50:54;;;;;;;96.10;28.37;;;;;;;;;;5076729;28;20283;-52
2022/03/18 07:53:21;;;;;;;90.13;26.53;;;;;;;;;;5076690;28;20196;-53
2022/03/18 07:55:49;;;;;;;43.13;16.57;;;;;;;;;;5076315;28;20219;-54
2022/03/18 07:58:16;;;;;;;94.40;26.10;;;;;;;;;;5076048;28;20207;-53
2022/03/18 08:00:43;;;;;;;51.70;18.97;;;;;;;;;;5075953;28;20286;-53
2022/03/18 08:03:11;;;;;;;65.80;21.50;;;;;;;;;;5076104;28;20273;-52
2022/03/18 08:05:40;;;;;;;42.67;15.60;;;;;;;;;;5076273;28;20276;-52
2022/03/18 08:08:07;;;;;;;140.80;32.50;;;;;;;;;;5076181;28;20624;-52
2022/03/18 08:10:36;;;;;;;105.33;27.40;;;;;;;;;;5076236;28;20233;-55
2022/03/18 08:13:04;;;;;;;59.30;18.63;;;;;;;;;;5075801;28;20200;-54
2022/03/18 08:15:32;;;;;;;31.80;13.03;;;;;;;;;;5075898;28;20207;-52
2022/03/18 08:17:59;;;;;;;32.97;12.47;;;;;;;;;;5076224;28;20541;-53
2022/03/18 08:20:26;;;;;;;29.70;12.37;;;;;;;;;;5075853;28;20653;-53
2022/03/18 08:22:54;;;;;;;54.00;19.27;;;;;;;;;;5076172;28;20286;-56
2022/03/18 08:25:21;;;;;;;63.60;20.70;;;;;;;;;;5075671;28;20203;-54
2022/03/18 08:27:49;;;;;;;333.03;98.07;;;;;;;;;;5076090;28;20276;-55
2022/03/18 08:30:17;;;;;;;119.23;27.17;;;;;;;;;;5075509;28;20678;-52
2022/03/18 08:32:45;;;;;;;134.97;29.67;;;;;;;;;;5058451;28;20534;-52
2022/03/18 08:35:13;;;;;;;93.77;25.10;;;;;;;;;;5075638;28;20235;-55
2022/03/18 08:37:58;;;;;;;113.93;28.80;;;;;;;;;;5075376;28;20644;-52
2022/03/18 08:40:28;;;;;;;49.57;14.87;;;;;;;;;;5075437;28;20226;-52
2022/03/18 08:42:56;;;;;;;61.47;18.17;;;;;;;;;;5075374;28;20206;-52
2022/03/18 08:45:24;;;;;;;109.90;27.63;;;;;;;;;;5075400;28;20650;-51
2022/03/18 08:47:51;;;;;;;736.53;292.83;;;;;;;;;;5075321;28;20203;-52
2022/03/18 08:50:20;;;;;;;97.67;25.10;;;;;;;;;;5075038;28;20265;-55
2022/03/18 08:52:49;;;;;;;160.17;34.10;;;;;;;;;;5075606;28;20203;-55
2022/03/18 08:55:17;;;;;;;72.03;19.70;;;;;;;;;;5075343;28;20195;-52
2022/03/18 08:57:44;;;;;;;87.77;23.07;;;;;;;;;;5075686;28;20233;-52
2022/03/18 09:00:14;;;;;;;14.03;8.03;;;;;;;;;;5075265;28;20299;-54
2022/03/18 09:02:43;;;;;;;24.40;9.90;;;;;;;;;;5074995;28;20693;-55
2022/03/18 09:05:11;;;;;;;40.43;12.80;;;;;;;;;;5075380;28;20203;-55
2022/03/18 09:07:39;;;;;;;95.13;33.13;;;;;;;;;;5075178;28;20230;-54
2022/03/18 09:10:08;;;;;;;442.57;178.37;;;;;;;;;;5074452;28;20625;-54
2022/03/18 09:12:35;;;;;;;15.03;8.50;;;;;;;;;;5074791;28;20218;-53
2022/03/18 09:15:03;;;;;;;13.87;7.73;;;;;;;;;;5074904;28;20249;-53
2022/03/18 09:17:30;;;;;;;12.77;7.00;;;;;;;;;;5074892;28;20638;-54
2022/03/18 09:19:57;;;;;;;13.77;7.63;;;;;;;;;;5074987;28;20242;-50
2022/03/18 09:22:24;;;;;;;14.27;7.90;;;;;;;;;;5074710;28;20203;-55
2022/03/18 09:24:51;;;;;;;13.50;7.30;;;;;;;;;;5074811;28;20229;-52
2022/03/18 09:27:19;;;;;;;11.43;7.03;;;;;;;;;;5074686;28;20634;-53
2022/03/18 09:29:46;;;;;;;20.00;8.23;;;;;;;;;;5074852;28;20227;-52
2022/03/18 09:32:15;;;;;;;13.10;8.37;;;;;;;;;;5074679;28;20203;-55
2022/03/18 09:34:42;;;;;;;114.37;25.80;;;;;;;;;;5075037;28;20214;-50
2022/03/18 09:37:09;;;;;;;40.10;14.37;;;;;;;;;;5074824;28;20241;-55
2022/03/18 09:39:36;;;;;;;28.63;10.93;;;;;;;;;;5074670;28;20231;-54
2022/03/18 09:42:09;;;;;;;85.40;23.80;;;;;;;;;;5074889;28;20484;-52
2022/03/18 09:44:37;;;;;;;22.03;9.20;;;;;;;;;;5074737;28;20226;-55
2022/03/18 09:47:08;;;;;;;36.73;11.90;;;;;;;;;;5074474;28;20202;-53
2022/03/18 09:49:36;;;;;;;42.97;15.07;;;;;;;;;;5074489;28;20248;-51
2022/03/18 09:52:04;;;;;;;529.67;198.07;;;;;;;;;;5074562;28;20199;-54
2022/03/18 09:54:32;;;;;;;82.10;24.30;;;;;;;;;;5074564;28;20627;-52
2022/03/18 09:57:00;;;;;;;65.70;18.67;;;;;;;;;;5074495;28;20202;-52
2022/03/18 09:59:28;;;;;;;28.90;10.93;;;;;;;;;;5074369;28;20207;-51
2022/03/18 10:02:21;;;;;;;94.07;23.97;;;;;;;;;;5074288;28;20211;-51
2022/03/18 10:04:53;;;;;;;109.23;29.67;;;;;;;;;;5074502;28;20207;-51
2022/03/18 10:07:21;;;;;;;128.13;30.63;;;;;;;;;;5074478;28;20252;-52
2022/03/18 10:10:14;;;;;;;182.07;37.37;;;;;;;;;;5074262;28;20266;-51
2022/03/18 10:12:50;;;;;;;62.47;21.83;;;;;;;;;;5074653;28;20211;-53
2022/03/18 10:15:22;;;;;;;12.23;7.47;;;;;;;;;;5074431;28;20226;-52
2022/03/18 10:17:51;;;;;;;14.93;7.73;;;;;;;;;;5074332;28;20358;-51
2022/03/18 10:20:35;;;;;;;13.27;7.70;;;;;;;;;;5074260;28;20211;-51
2022/03/18 10:23:04;;;;;;;16.27;8.03;;;;;;;;;;5078463;28;20273;-56
2022/03/18 10:25:48;;;;;;;19.47;8.70;;;;;;;;;;5078316;28;20582;-54
2022/03/18 10:28:15;;;;;;;18.43;8.87;;;;;;;;;;5077884;28;20187;-55
2022/03/18 10:30:42;;;;;;;13.20;7.03;;;;;;;;;;5060791;28;20307;-52
2022/03/18 10:33:12;;;;;;;13.33;7.53;;;;;;;;;;5045130;28;20502;-54
2022/03/18 10:38:30;;;;;;;33.60;11.73;;;;;;;;;;5049141;28;20685;-56
2022/03/18 10:40:59;;;;;;;11.83;7.00;;;;;;;;;;5077768;28;20190;-55
2022/03/18 10:43:26;;;;;;;30.33;11.40;;;;;;;;;;5077582;28;20227;-53
2022/03/18 10:46:05;;;;;;;55.67;17.63;;;;;;;;;;5077703;28;20373;-54
2022/03/18 10:48:33;;;;;;;17.73;11.03;;;;;;;;;;5078041;28;20203;-51
2022/03/18 10:51:07;;;;;;;107.17;28.20;;;;;;;;;;5077646;28;20251;-51
2022/03/18 10:53:35;;;;;;;64.80;20.00;;;;;;;;;;5077488;28;20538;-51
2022/03/18 10:56:02;;;;;;;84.10;23.07;;;;;;;;;;5077746;28;20199;-51
2022/03/18 10:58:32;;;;;;;257.10;89.17;;;;;;;;;;5077430;28;20216;-51
2022/03/18 11:01:03;;;;;;;65.60;26.03;;;;;;;;;;5077617;28;20203;-51
2022/03/18 11:03:31;;;;;;;103.67;27.47;;;;;;;;;;5077499;28;20263;-51
2022/03/18 11:06:02;;;;;;;60.23;33.37;;;;;;;;;;5077562;28;20226;-52
2022/03/18 11:08:48;;;;;;;86.07;57.70;;;;;;;;;;5077479;28;20586;-52
2022/03/18 11:11:21;;;;;;;76.17;24.20;;;;;;;;;;5077281;28;20226;-53
2022/03/18 11:14:01;;;;;;;137.87;73.17;;;;;;;;;;5060761;28;20223;-53
2022/03/18 11:16:31;;;;;;;86.67;26.07;;;;;;;;;;5077043;28;20191;-55
2022/03/18 11:19:00;;;;;;;320.13;93.97;;;;;;;;;;5077361;28;20665;-51
2022/03/18 11:21:38;;;;;;;38.57;17.60;;;;;;;;;;5077159;28;20246;-52
2022/03/18 11:24:14;;;;;;;53.30;28.00;;;;;;;;;;5077550;28;20199;-53
2022/03/18 11:26:49;;;;;;;44.60;24.07;;;;;;;;;;5077193;28;20626;-53
2022/03/18 11:29:26;;;;;;;12.47;8.20;;;;;;;;;;5059714;28;20226;-55
2022/03/18 11:32:12;;;;;;;14.00;7.77;;;;;;;;;;5079920;28;20276;-53
2022/03/18 11:34:46;;;;;;;54.77;21.80;;;;;;;;;;5096968;28;20206;-54
2022/03/18 11:37:13;;;;;;;16.27;9.10;;;;;;;;;;5097067;28;20237;-54
2022/03/18 11:39:40;;;;;;;823.03;262.87;;;;;;;;;;5097067;28;20230;-55
2022/03/18 11:42:09;;;;;;;975.60;376.93;;;;;;;;;;5096709;28;20285;-53
2022/03/18 11:44:41;;;;;;;185.27;43.17;;;;;;;;;;5096970;28;20648;-52
2022/03/18 11:47:20;;;;;;;33.63;16.70;;;;;;;;;;5097080;28;20199;-55
2022/03/18 11:49:55;;;;;;;41.43;16.23;;;;;;;;;;5097571;28;20257;-54
2022/03/18 11:52:22;;;;;;;19.03;8.73;;;;;;;;;;5078995;28;20203;-51
2022/03/18 11:54:53;;;;;;;15.73;8.63;;;;;;;;;;5097121;28;20222;-51
2022/03/18 11:57:33;;;;;;;55.87;18.67;;;;;;;;;;5096553;28;20202;-53
2022/03/18 12:00:05;;;;;;;21.33;10.37;;;;;;;;;;5096781;28;20206;-51
2022/03/18 12:02:36;;;;;;;98.93;32.87;;;;;;;;;;5096765;28;20194;-54
2022/03/18 12:05:05;;;;;;;209.13;44.07;;;;;;;;;;5097070;28;20236;-56
2022/03/18 12:07:48;;;;;;;112.07;25.97;;;;;;;;;;5096377;28;20282;-51
2022/03/18 12:10:31;;;;;;;30.23;11.90;;;;;;;;;;5096683;28;20245;-58
2022/03/18 12:12:59;;;;;;;42.90;15.33;;;;;;;;;;5096177;28;20651;-55
2022/03/18 12:15:26;;;;;;;77.43;24.97;;;;;;;;;;5096421;28;20202;-52
2022/03/18 12:17:58;;;;;;;63.77;21.87;;;;;;;;;;5096081;28;20647;-52
2022/03/18 12:20:29;;;;;;;31.23;16.30;;;;;;;;;;5096489;28;20233;-54
2022/03/18 12:22:59;;;;;;;49.93;21.10;;;;;;;;;;5096042;28;20206;-52
2022/03/18 12:25:26;;;;;;;60.17;25.47;;;;;;;;;;5096185;28;20267;-52
2022/03/18 12:27:54;;;;;;;53.07;23.43;;;;;;;;;;5096580;28;20251;-51
2022/03/18 12:30:24;;;;;;;45.27;18.73;;;;;;;;;;5095931;28;20261;-55
2022/03/18 12:33:01;;;;;;;27.80;10.57;;;;;;;;;;5095823;28;20203;-55
2022/03/18 12:35:29;;;;;;;45.23;16.00;;;;;;;;;;5095786;28;20212;-56
2022/03/18 12:38:07;;;;;;;21.50;8.90;;;;;;;;;;5096247;28;20237;-54
2022/03/18 12:40:40;;;;;;;10.83;7.03;;;;;;;;;;5095988;28;20265;-55
2022/03/18 12:43:07;;;;;;;10.87;6.67;;;;;;;;;;5096017;28;20278;-52
2022/03/18 12:45:44;;;;;;;50.40;18.60;;;;;;;;;;5075088;28;20667;-57
2022/03/18 12:48:16;;;;;;;12.27;6.83;;;;;;;;;;5069309;28;20230;-56
2022/03/18 12:51:03;;;;;;;223.60;76.60;;;;;;;;;;5074014;28;20242;-54
2022/03/18 12:53:34;;;;;;;103.93;35.63;;;;;;;;;;5074465;28;20229;-54
2022/03/18 12:56:16;;;;;;;49.80;17.17;;;;;;;;;;5056651;28;20623;-56
2022/03/18 12:58:48;;;;;;;30.90;11.07;;;;;;;;;;5057314;28;20246;-54
2022/03/18 13:01:35;;;;;;;26.83;12.60;;;;;;;;;;5073447;28;20259;-56
2022/03/18 13:04:02;;;;;;;22.50;10.47;;;;;;;;;;5073886;28;20317;-55
2022/03/18 13:06:33;;;;;;;70.67;28.03;;;;;;;;;;5074577;28;20323;-55
2022/03/18 13:09:09;;;;;;;82.67;37.33;;;;;;;;;;5074103;28;20235;-60
2022/03/18 13:11:41;;;;;;;55.57;29.60;;;;;;;;;;5074171;28;20235;-57
2022/03/18 13:14:09;;;;;;;15.27;8.83;;;;;;;;;;5074245;28;20219;-54
2022/03/18 13:16:38;;;;;;;89.03;32.20;;;;;;;;;;5073861;28;20220;-54
2022/03/18 13:19:07;;;;;;;49.30;18.83;;;;;;;;;;5073543;28;20246;-58
2022/03/18 13:21:47;;;;;;;38.93;16.07;;;;;;;;;;5072733;28;20222;-59
2022/03/18 13:24:15;;;;;;;38.03;18.53;;;;;;;;;;5071534;28;20190;-57
2022/03/18 13:26:47;;;;;;;63.27;32.97;;;;;;;;;;5073279;28;20234;-60
2022/03/18 13:29:14;;;;;;;48.10;23.97;;;;;;;;;;5071045;28;20180;-57
2022/03/18 13:34:31;;;;;;;812.10;307.33;;;;;;;;;;5039910;28;20192;-57
2022/03/18 13:37:11;;;;;;;59.72;21.13;;;;;;;;;;5072269;28;20261;-58
2022/03/18 13:39:39;;;;;;;60.00;15.70;;;;;;;;;;5058266;28;20250;-57
2022/03/18 13:42:07;;;;;;;16.87;9.43;;;;;;;;;;5073247;28;20278;-56
2022/03/18 13:44:47;;;;;;;51.43;22.20;;;;;;;;;;5074131;28;20218;-60
2022/03/18 13:47:14;;;;;;;30.70;17.83;;;;;;;;;;5073717;28;20219;-56
2022/03/18 13:50:01;;;;;;;34.53;15.07;;;;;;;;;;5073735;28;20262;-58
2022/03/18 13:52:36;;;;;;;24.67;13.57;;;;;;;;;;5072498;28;20270;-58
2022/03/18 13:55:03;;;;;;;22.27;10.70;;;;;;;;;;5091620;28;20226;-56
2022/03/18 13:57:46;;;;;;;16.20;8.63;;;;;;;;;;5074568;28;20254;-56
2022/03/18 14:00:27;;;;;;;13.27;7.50;;;;;;;;;;5074687;28;20370;-58
2022/03/18 14:03:08;;;;;;;13.70;7.77;;;;;;;;;;5073797;28;20261;-55
2022/03/18 14:05:36;;;;;;;16.57;8.60;;;;;;;;;;5074583;28;20234;-58
2022/03/18 14:08:06;;;;;;;17.03;7.30;;;;;;;;;;5075258;28;20758;-54
2022/03/18 14:10:38;;;;;;;13.20;8.50;;;;;;;;;;5058739;28;20234;-58
2022/03/18 14:13:10;;;;;;;11.07;6.43;;;;;;;;;;5076185;28;20229;-53
2022/03/18 14:15:42;;;;;;;11.30;6.73;;;;;;;;;;5076807;28;20219;-61
2022/03/18 14:18:11;;;;;;;16.00;6.47;;;;;;;;;;5075127;28;20641;-55
2022/03/18 14:20:47;;;;;;;10.93;6.40;;;;;;;;;;5076317;28;20250;-55
2022/03/18 14:23:31;;;;;;;40.20;14.47;;;;;;;;;;5073245;28;20704;-53
2022/03/18 14:26:05;;;;;;;31.00;15.00;;;;;;;;;;5075009;28;20242;-53
2022/03/18 14:28:32;;;;;;;26.10;10.80;;;;;;;;;;5073420;28;20289;-52
2022/03/18 14:31:00;;;;;;;25.83;9.27;;;;;;;;;;5076024;28;20313;-52
2022/03/18 14:33:33;;;;;;;85.37;44.00;;;;;;;;;;5075465;28;20261;-51
2022/03/18 14:36:01;;;;;;;17.97;8.97;;;;;;;;;;5075779;28;20700;-53
2022/03/18 14:38:28;;;;;;;14.57;8.17;;;;;;;;;;5072617;28;20243;-55
2022/03/18 14:41:00;;;;;;;12.33;7.87;;;;;;;;;;5075871;28;20302;-54
2022/03/18 14:43:30;;;;;;;30.03;12.93;;;;;;;;;;5057277;28;20247;-59